Time;durP1;ratioP1;P1;durP2;ratioP2;P2;SDS_P1;SDS_P2;PMS_P1;PMS_P2;Temp;Humidity;BMP_temperature;BMP_pressure;BME280_temperature;BME280_humidity;BME280_pressure;Samples;Min_cycle;Max_cycle;Signal;HPM_P1;HPM_P2
2021/12/09 00:00:32;;;;;;;236.02;103.28;;;;;;;;;;5039586;28;20035;-77
2021/12/09 00:02:57;;;;;;;209.75;98.35;;;;;;;;;;5040108;28;20029;-78
2021/12/09 00:05:23;;;;;;;217.93;98.97;;;;;;;;;;5037301;28;20033;-78
2021/12/09 00:07:51;;;;;;;227.13;102.32;;;;;;;;;;5036996;28;20063;-78
2021/12/09 00:10:17;;;;;;;221.10;97.88;;;;;;;;;;5037113;28;20083;-78
2021/12/09 00:12:43;;;;;;;207.73;91.28;;;;;;;;;;5019490;28;20428;-77
2021/12/09 00:15:08;;;;;;;185.57;88.00;;;;;;;;;;5003035;28;20025;-78
2021/12/09 00:17:34;;;;;;;155.88;64.90;;;;;;;;;;5019174;28;20369;-78
2021/12/09 00:19:59;;;;;;;114.68;49.13;;;;;;;;;;5036927;28;20029;-78
2021/12/09 00:22:25;;;;;;;106.85;47.58;;;;;;;;;;5036917;28;20380;-77
2021/12/09 00:24:51;;;;;;;115.47;45.42;;;;;;;;;;5038764;28;20061;-78
2021/12/09 00:27:16;;;;;;;135.38;55.90;;;;;;;;;;5002883;28;20095;-78
2021/12/09 00:29:42;;;;;;;86.35;38.05;;;;;;;;;;5002787;28;20021;-78
2021/12/09 00:32:08;;;;;;;121.15;49.63;;;;;;;;;;5036550;28;20368;-78
2021/12/09 00:34:36;;;;;;;108.38;47.45;;;;;;;;;;5019018;28;20144;-77
2021/12/09 00:37:41;;;;;;;155.77;71.22;;;;;;;;;;4987505;28;20124;-77
2021/12/09 00:39:56;;;;;;;173.05;78.68;;;;;;;;;;5031592;28;20029;-78
2021/12/09 00:42:23;;;;;;;191.10;85.35;;;;;;;;;;5036752;28;20348;-78
2021/12/09 00:44:48;;;;;;;171.00;79.65;;;;;;;;;;5020654;28;20025;-78
2021/12/09 00:47:14;;;;;;;177.80;79.75;;;;;;;;;;5003589;28;20124;-78
2021/12/09 00:49:39;;;;;;;178.70;80.10;;;;;;;;;;5018735;28;20123;-78
2021/12/09 00:52:05;;;;;;;148.75;67.68;;;;;;;;;;5036357;28;20028;-77
2021/12/09 00:54:31;;;;;;;159.60;74.40;;;;;;;;;;5018572;28;20049;-77
2021/12/09 00:56:56;;;;;;;174.40;77.80;;;;;;;;;;5018899;28;20370;-77
2021/12/09 00:59:22;;;;;;;170.27;77.03;;;;;;;;;;5018634;28;20467;-77
2021/12/09 01:01:47;;;;;;;175.77;79.07;;;;;;;;;;5036070;28;20029;-78
2021/12/09 01:04:13;;;;;;;183.57;82.32;;;;;;;;;;5036457;28;20113;-78
2021/12/09 01:06:38;;;;;;;202.30;87.18;;;;;;;;;;5018818;28;20084;-77
2021/12/09 01:09:04;;;;;;;195.70;89.25;;;;;;;;;;5036086;28;20401;-78
2021/12/09 01:11:29;;;;;;;200.93;90.93;;;;;;;;;;5018338;28;21151;-78
2021/12/09 01:13:55;;;;;;;207.88;94.45;;;;;;;;;;5018175;28;20468;-78
2021/12/09 01:16:20;;;;;;;215.07;96.22;;;;;;;;;;5017967;28;20033;-77
2021/12/09 01:18:46;;;;;;;222.40;98.00;;;;;;;;;;5035796;28;20035;-77
2021/12/09 01:21:11;;;;;;;212.30;96.60;;;;;;;;;;5035832;28;20441;-77
2021/12/09 01:23:37;;;;;;;200.25;89.45;;;;;;;;;;5035927;28;20091;-77
2021/12/09 01:26:04;;;;;;;186.57;85.63;;;;;;;;;;5036787;28;20057;-77
2021/12/09 01:28:34;;;;;;;199.60;92.22;;;;;;;;;;5020523;28;20365;-77
2021/12/09 01:31:05;;;;;;;183.05;82.03;;;;;;;;;;5035443;28;20438;-77
2021/12/09 01:33:32;;;;;;;183.27;83.15;;;;;;;;;;5035530;28;20448;-78
2021/12/09 01:35:57;;;;;;;181.80;78.60;;;;;;;;;;5001980;28;20465;-79
2021/12/09 01:38:25;;;;;;;179.57;79.00;;;;;;;;;;5017859;28;20108;-78
2021/12/09 01:40:51;;;;;;;175.63;80.45;;;;;;;;;;5035287;28;20025;-77
2021/12/09 01:43:16;;;;;;;175.32;80.05;;;;;;;;;;5035363;28;20029;-78
2021/12/09 01:45:42;;;;;;;177.77;80.80;;;;;;;;;;5017650;28;20029;-78
2021/12/09 01:48:07;;;;;;;165.07;76.80;;;;;;;;;;5001698;28;20043;-78
2021/12/09 01:50:34;;;;;;;178.25;80.43;;;;;;;;;;5017649;28;20392;-77
2021/12/09 01:53:00;;;;;;;166.23;74.82;;;;;;;;;;5017803;28;20095;-78
2021/12/09 01:55:26;;;;;;;161.20;75.47;;;;;;;;;;5035040;28;20462;-78
2021/12/09 01:57:52;;;;;;;167.55;76.72;;;;;;;;;;5034918;28;20029;-77
2021/12/09 02:00:20;;;;;;;163.73;71.82;;;;;;;;;;5034867;28;20128;-78
2021/12/09 02:02:45;;;;;;;158.65;71.85;;;;;;;;;;5035322;28;20458;-79
2021/12/09 02:05:11;;;;;;;146.48;68.25;;;;;;;;;;5001041;28;20075;-78
2021/12/09 02:07:37;;;;;;;160.75;70.05;;;;;;;;;;5017251;28;20099;-78
2021/12/09 02:10:08;;;;;;;142.43;61.83;;;;;;;;;;5017668;28;20063;-78
2021/12/09 02:12:34;;;;;;;143.80;62.22;;;;;;;;;;5001203;28;20049;-78
2021/12/09 02:15:00;;;;;;;144.02;65.20;;;;;;;;;;5016974;28;20095;-78
2021/12/09 02:17:29;;;;;;;153.77;65.82;;;;;;;;;;5034911;28;20041;-78
2021/12/09 02:19:58;;;;;;;136.18;61.65;;;;;;;;;;5034660;28;20357;-78
2021/12/09 02:22:24;;;;;;;126.40;56.13;;;;;;;;;;5017132;28;20025;-78
2021/12/09 02:24:52;;;;;;;122.53;55.90;;;;;;;;;;5016915;28;20033;-79
2021/12/09 02:27:18;;;;;;;121.68;53.53;;;;;;;;;;5016700;28;20095;-78
2021/12/09 02:29:43;;;;;;;117.22;54.25;;;;;;;;;;5034662;28;20116;-77
2021/12/09 02:32:09;;;;;;;114.10;50.45;;;;;;;;;;5036721;28;20453;-78
2021/12/09 02:34:34;;;;;;;97.47;44.15;;;;;;;;;;5035307;28;20045;-78
2021/12/09 02:37:00;;;;;;;97.68;42.97;;;;;;;;;;5000364;28;20045;-79
2021/12/09 02:39:26;;;;;;;85.35;39.88;;;;;;;;;;5034435;28;20025;-78
2021/12/09 02:41:51;;;;;;;78.45;35.40;;;;;;;;;;4984667;28;20056;-76
2021/12/09 02:44:19;;;;;;;74.22;33.97;;;;;;;;;;5016858;28;20033;-77
2021/12/09 02:46:44;;;;;;;66.38;30.05;;;;;;;;;;5000811;28;20037;-78
2021/12/09 02:49:14;;;;;;;57.25;26.52;;;;;;;;;;5034438;28;20391;-78
2021/12/09 02:51:39;;;;;;;59.20;24.65;;;;;;;;;;5034496;28;20060;-77
2021/12/09 02:54:06;;;;;;;55.50;25.08;;;;;;;;;;5001473;28;20033;-77
2021/12/09 02:56:33;;;;;;;49.60;22.42;;;;;;;;;;5000222;28;20029;-76
2021/12/09 02:58:59;;;;;;;48.83;21.50;;;;;;;;;;5017040;28;20132;-77
2021/12/09 03:01:30;;;;;;;45.90;19.40;;;;;;;;;;5016556;28;20535;-76
2021/12/09 03:03:59;;;;;;;45.45;19.65;;;;;;;;;;5016615;28;20128;-77
2021/12/09 03:06:32;;;;;;;40.25;18.83;;;;;;;;;;5034190;28;20041;-77
2021/12/09 03:09:01;;;;;;;36.25;16.67;;;;;;;;;;5033952;28;20151;-77
2021/12/09 03:11:26;;;;;;;36.10;16.83;;;;;;;;;;4999911;28;20029;-76
2021/12/09 03:13:52;;;;;;;37.92;15.90;;;;;;;;;;5016275;28;20060;-76
2021/12/09 03:16:19;;;;;;;35.55;15.75;;;;;;;;;;5034541;28;20037;-77
2021/12/09 03:18:53;;;;;;;35.67;17.20;;;;;;;;;;5035218;28;20032;-76
2021/12/09 03:21:26;;;;;;;36.22;15.70;;;;;;;;;;5033910;28;20368;-77
2021/12/09 03:23:52;;;;;;;41.65;15.93;;;;;;;;;;5016739;28;20030;-77
2021/12/09 03:26:22;;;;;;;37.17;17.02;;;;;;;;;;4983662;28;20118;-76
2021/12/09 03:28:48;;;;;;;42.40;17.48;;;;;;;;;;5034052;28;20116;-77
2021/12/09 03:31:13;;;;;;;40.30;19.80;;;;;;;;;;5033718;28;20112;-77
2021/12/09 03:33:39;;;;;;;42.50;18.30;;;;;;;;;;5016467;28;20040;-77
2021/12/09 03:36:05;;;;;;;44.40;18.95;;;;;;;;;;5034011;28;20410;-77
2021/12/09 03:38:31;;;;;;;44.70;20.10;;;;;;;;;;5036558;28;20061;-76
2021/12/09 03:40:57;;;;;;;46.13;21.08;;;;;;;;;;5015985;28;20116;-77
2021/12/09 03:43:23;;;;;;;49.10;22.98;;;;;;;;;;5033613;28;20424;-77
2021/12/09 03:45:50;;;;;;;49.22;22.15;;;;;;;;;;5016134;28;20029;-76
2021/12/09 03:48:16;;;;;;;50.40;22.08;;;;;;;;;;5000101;28;20048;-77
2021/12/09 03:50:43;;;;;;;47.75;21.30;;;;;;;;;;5015928;28;20064;-77
2021/12/09 03:53:09;;;;;;;49.00;23.40;;;;;;;;;;5033559;28;20372;-77
2021/12/09 03:55:34;;;;;;;54.38;25.27;;;;;;;;;;5015782;28;20037;-77
2021/12/09 03:58:00;;;;;;;57.47;26.40;;;;;;;;;;5033718;28;20037;-77
2021/12/09 04:00:28;;;;;;;54.63;27.27;;;;;;;;;;5034090;28;20338;-77
2021/12/09 04:02:53;;;;;;;58.97;28.25;;;;;;;;;;5034872;28;20034;-76
2021/12/09 04:05:19;;;;;;;49.72;24.25;;;;;;;;;;5016522;28;20091;-77
2021/12/09 04:07:44;;;;;;;49.22;24.75;;;;;;;;;;5016066;28;20045;-77
2021/12/09 04:10:10;;;;;;;71.05;28.92;;;;;;;;;;5033311;28;20075;-77
2021/12/09 04:12:35;;;;;;;62.78;27.95;;;;;;;;;;5033830;28;20030;-76
2021/12/09 04:15:01;;;;;;;71.30;33.72;;;;;;;;;;5033556;28;20030;-77
2021/12/09 04:17:26;;;;;;;72.82;34.78;;;;;;;;;;5016324;28;20030;-77
2021/12/09 04:19:52;;;;;;;61.22;29.08;;;;;;;;;;5016030;28;20369;-78
2021/12/09 04:22:18;;;;;;;59.15;25.73;;;;;;;;;;5017968;28;20118;-77
2021/12/09 04:24:43;;;;;;;55.38;26.05;;;;;;;;;;5038519;28;20061;-78
2021/12/09 04:27:09;;;;;;;55.58;26.23;;;;;;;;;;5036811;28;20057;-78
2021/12/09 04:29:34;;;;;;;55.33;25.35;;;;;;;;;;5002676;28;20099;-78
2021/12/09 04:32:00;;;;;;;50.03;22.75;;;;;;;;;;5036750;28;20068;-77
2021/12/09 04:34:25;;;;;;;43.80;21.13;;;;;;;;;;5036667;28;20033;-78
2021/12/09 04:36:51;;;;;;;47.00;22.15;;;;;;;;;;5019180;28;20048;-77
2021/12/09 04:39:16;;;;;;;44.03;21.15;;;;;;;;;;5036325;28;20087;-77
2021/12/09 04:41:42;;;;;;;48.70;23.60;;;;;;;;;;5036469;28;20030;-78
2021/12/09 04:44:08;;;;;;;52.55;23.77;;;;;;;;;;5019349;28;20040;-77
2021/12/09 04:46:33;;;;;;;58.33;23.48;;;;;;;;;;5036930;28;20372;-78
2021/12/09 04:48:59;;;;;;;60.58;26.75;;;;;;;;;;5036702;28;20070;-78
2021/12/09 04:51:24;;;;;;;54.85;24.20;;;;;;;;;;5002597;28;20452;-78
2021/12/09 04:53:50;;;;;;;59.88;24.80;;;;;;;;;;5036083;28;20025;-79
2021/12/09 04:56:15;;;;;;;56.80;25.50;;;;;;;;;;5036558;28;20032;-77
2021/12/09 04:58:41;;;;;;;64.00;27.20;;;;;;;;;;5036290;28;20036;-77
2021/12/09 05:01:07;;;;;;;74.95;31.38;;;;;;;;;;5018543;28;20167;-78
2021/12/09 05:03:32;;;;;;;86.20;33.38;;;;;;;;;;5039118;28;20071;-81
2021/12/09 05:05:58;;;;;;;86.22;34.53;;;;;;;;;;5027703;28;20036;-77
2021/12/09 05:08:26;;;;;;;87.35;33.80;;;;;;;;;;5018638;28;20043;-78
2021/12/09 05:13:19;;;;;;;87.93;35.10;;;;;;;;;;5052968;28;20033;-77
2021/12/09 05:15:45;;;;;;;92.65;34.53;;;;;;;;;;5054303;28;20022;-76
2021/12/09 05:18:11;;;;;;;114.63;45.58;;;;;;;;;;5058510;28;20029;-81
2021/12/09 05:20:36;;;;;;;118.07;44.40;;;;;;;;;;5037679;28;20052;-81
2021/12/09 05:23:02;;;;;;;115.60;43.47;;;;;;;;;;5046590;28;20009;-80
2021/12/09 05:25:27;;;;;;;86.93;38.20;;;;;;;;;;5034109;28;20042;-79
2021/12/09 05:27:53;;;;;;;78.32;34.08;;;;;;;;;;5025406;28;20468;-79
2021/12/09 05:30:24;;;;;;;85.75;35.42;;;;;;;;;;5018061;28;20030;-79
2021/12/09 05:32:50;;;;;;;78.80;35.22;;;;;;;;;;5018621;28;20056;-79
2021/12/09 05:35:15;;;;;;;81.00;36.72;;;;;;;;;;5035979;28;20476;-78
2021/12/09 05:37:41;;;;;;;97.80;42.85;;;;;;;;;;5017903;28;20029;-79
2021/12/09 05:40:07;;;;;;;68.07;32.55;;;;;;;;;;5001668;28;20029;-81
2021/12/09 05:42:33;;;;;;;72.90;33.55;;;;;;;;;;5018114;28;20052;-82
2021/12/09 05:44:59;;;;;;;76.35;35.75;;;;;;;;;;4986280;28;20029;-82
2021/12/09 05:47:25;;;;;;;112.32;59.83;;;;;;;;;;5024005;28;20025;-82
2021/12/09 05:49:51;;;;;;;95.80;48.28;;;;;;;;;;4991763;28;20041;-81
2021/12/09 05:52:16;;;;;;;77.95;36.78;;;;;;;;;;5002242;28;20384;-74
2021/12/09 05:54:42;;;;;;;78.28;37.42;;;;;;;;;;5029157;28;20030;-74
2021/12/09 05:57:08;;;;;;;82.30;35.95;;;;;;;;;;5018471;28;20073;-74
2021/12/09 05:59:34;;;;;;;77.97;33.63;;;;;;;;;;5041030;28;20172;-75
2021/12/09 06:02:14;;;;;;;82.57;33.33;;;;;;;;;;5006796;28;20087;-75
2021/12/09 06:04:40;;;;;;;84.13;33.33;;;;;;;;;;5028808;28;20029;-76
2021/12/09 06:07:10;;;;;;;314.50;129.38;;;;;;;;;;5029785;28;20135;-78
2021/12/09 06:09:36;;;;;;;162.15;69.35;;;;;;;;;;5018667;28;20044;-80
2021/12/09 06:12:04;;;;;;;202.05;104.65;;;;;;;;;;5038970;28;20030;-79
2021/12/09 06:14:30;;;;;;;220.70;112.22;;;;;;;;;;5037810;28;20036;-77
2021/12/09 06:16:55;;;;;;;193.05;95.93;;;;;;;;;;5028900;28;20033;-77
2021/12/09 06:19:24;;;;;;;168.15;78.15;;;;;;;;;;5013777;28;20060;-79
2021/12/09 06:21:50;;;;;;;298.10;143.13;;;;;;;;;;5011732;28;20023;-76
2021/12/09 06:24:15;;;;;;;144.15;67.60;;;;;;;;;;5012581;28;20136;-77
2021/12/09 06:26:41;;;;;;;113.95;51.97;;;;;;;;;;5013910;28;20083;-76
2021/12/09 06:29:07;;;;;;;89.05;38.80;;;;;;;;;;5040447;28;20079;-78
2021/12/09 06:31:34;;;;;;;69.32;30.75;;;;;;;;;;5023269;28;20095;-77
2021/12/09 06:34:11;;;;;;;74.93;33.63;;;;;;;;;;5035785;28;20036;-77
2021/12/09 06:36:37;;;;;;;82.45;38.58;;;;;;;;;;5025557;28;20029;-79
2021/12/09 06:39:12;;;;;;;102.28;42.55;;;;;;;;;;5016978;28;20060;-76
2021/12/09 06:41:40;;;;;;;90.18;40.05;;;;;;;;;;5008290;28;20045;-74
2021/12/09 06:44:06;;;;;;;95.97;48.80;;;;;;;;;;5014910;28;20429;-77
2021/12/09 06:46:31;;;;;;;92.05;41.80;;;;;;;;;;5030835;28;20086;-78
2021/12/09 06:48:57;;;;;;;89.30;38.97;;;;;;;;;;5012680;28;20037;-76
2021/12/09 06:54:07;;;;;;;85.55;37.60;;;;;;;;;;5043134;28;20091;-78
2021/12/09 06:56:43;;;;;;;;;;;;;;;;;;;;;
2021/12/09 06:59:09;;;;;;;153.10;81.38;;;;;;;;;;5032816;28;20036;-76
2021/12/09 07:01:36;;;;;;;132.90;72.90;;;;;;;;;;5028957;28;20115;-78
2021/12/09 07:04:02;;;;;;;100.82;49.13;;;;;;;;;;5014363;28;20373;-77
2021/12/09 07:06:28;;;;;;;97.32;46.22;;;;;;;;;;5029568;28;20120;-78
2021/12/09 07:08:56;;;;;;;101.80;45.90;;;;;;;;;;5021534;28;20052;-76
2021/12/09 07:11:21;;;;;;;92.88;42.75;;;;;;;;;;5035573;28;20087;-75
2021/12/09 07:13:47;;;;;;;108.53;49.55;;;;;;;;;;5027907;28;20025;-77
2021/12/09 07:16:13;;;;;;;120.22;51.17;;;;;;;;;;5010074;28;20029;-77
2021/12/09 07:18:38;;;;;;;122.50;50.50;;;;;;;;;;5011042;28;20037;-75
2021/12/09 07:21:04;;;;;;;126.40;51.03;;;;;;;;;;5030058;28;20037;-75
2021/12/09 07:23:30;;;;;;;125.97;54.70;;;;;;;;;;5033257;28;20026;-77
2021/12/09 07:25:56;;;;;;;134.13;56.90;;;;;;;;;;5032667;28;20042;-74
2021/12/09 07:28:50;;;;;;;135.60;56.15;;;;;;;;;;5034738;28;20038;-77
2021/12/09 07:31:24;;;;;;;137.60;53.78;;;;;;;;;;5018659;28;20144;-80
2021/12/09 07:33:50;;;;;;;128.90;51.38;;;;;;;;;;5029986;28;20030;-77
2021/12/09 07:36:16;;;;;;;118.10;48.60;;;;;;;;;;5031522;28;20079;-77
2021/12/09 07:38:51;;;;;;;129.85;48.70;;;;;;;;;;5029501;28;20194;-75
2021/12/09 07:41:17;;;;;;;122.05;48.40;;;;;;;;;;5008656;28;20033;-77
2021/12/09 07:43:43;;;;;;;161.77;58.42;;;;;;;;;;5029266;28;20037;-78
2021/12/09 07:46:09;;;;;;;144.52;56.47;;;;;;;;;;5031202;28;20068;-80
2021/12/09 07:48:34;;;;;;;105.88;44.58;;;;;;;;;;5014813;28;20045;-79
2021/12/09 07:51:00;;;;;;;97.80;40.67;;;;;;;;;;5025640;28;20030;-80
2021/12/09 07:53:25;;;;;;;88.78;40.10;;;;;;;;;;5031664;28;20022;-80
2021/12/09 07:55:51;;;;;;;84.85;38.83;;;;;;;;;;5014770;28;20030;-80
2021/12/09 07:58:17;;;;;;;91.57;38.65;;;;;;;;;;5031786;28;20393;-79
2021/12/09 08:00:43;;;;;;;90.00;42.83;;;;;;;;;;5032862;28;20024;-80
2021/12/09 08:03:08;;;;;;;104.32;43.50;;;;;;;;;;5019263;28;20443;-82
2021/12/09 08:05:36;;;;;;;103.25;47.10;;;;;;;;;;5017204;28;20030;-80
2021/12/09 08:08:02;;;;;;;103.38;44.15;;;;;;;;;;5015123;28;20460;-80
2021/12/09 08:10:33;;;;;;;101.63;45.53;;;;;;;;;;5028351;28;20064;-81
2021/12/09 08:12:59;;;;;;;;;;;;;;;;;;5019028;28;20036;-82
2021/12/09 08:15:28;;;;;;;87.63;39.90;;;;;;;;;;5039907;28;19943;-81
2021/12/09 08:18:02;;;;;;;91.13;40.80;;;;;;;;;;5018470;28;20041;-81
2021/12/09 08:20:29;;;;;;;97.35;44.85;;;;;;;;;;5034353;28;20025;-81
2021/12/09 08:22:54;;;;;;;101.32;45.47;;;;;;;;;;5017239;28;20128;-80
2021/12/09 08:25:20;;;;;;;100.88;44.90;;;;;;;;;;5016761;28;20154;-79
2021/12/09 08:27:45;;;;;;;112.78;50.25;;;;;;;;;;5017603;28;20037;-80
2021/12/09 08:30:12;;;;;;;111.47;49.88;;;;;;;;;;5048278;28;20075;-79
2021/12/09 08:32:38;;;;;;;125.93;59.85;;;;;;;;;;5019833;28;20092;-81
2021/12/09 08:35:04;;;;;;;107.95;50.17;;;;;;;;;;5039622;28;20142;-81
2021/12/09 08:40:17;;;;;;;102.50;47.65;;;;;;;;;;5078545;22;20114;-80
2021/12/09 08:42:43;;;;;;;92.15;43.40;;;;;;;;;;5053832;28;20029;-79
2021/12/09 08:45:10;;;;;;;82.57;36.55;;;;;;;;;;5052951;28;20040;-81
2021/12/09 08:47:37;;;;;;;89.20;41.53;;;;;;;;;;5059144;28;20040;-82
2021/12/09 08:50:03;;;;;;;94.68;45.78;;;;;;;;;;5042051;28;20052;-80
2021/12/09 08:52:28;;;;;;;86.03;38.08;;;;;;;;;;5035762;28;20036;-81
2021/12/09 08:54:54;;;;;;;80.10;36.90;;;;;;;;;;5053978;28;20124;-81
2021/12/09 08:57:22;;;;;;;91.22;39.03;;;;;;;;;;5052367;28;20041;-79
2021/12/09 08:59:47;;;;;;;84.53;38.30;;;;;;;;;;5051081;28;20029;-81
2021/12/09 09:02:14;;;;;;;99.55;46.22;;;;;;;;;;5031507;28;20093;-81
2021/12/09 09:04:39;;;;;;;117.72;49.17;;;;;;;;;;5033278;28;20029;-83
2021/12/09 09:07:06;;;;;;;95.20;42.58;;;;;;;;;;5038362;28;20040;-82
2021/12/09 09:09:34;;;;;;;99.38;42.63;;;;;;;;;;5037875;28;20070;-80
2021/12/09 09:12:05;;;;;;;104.75;40.10;;;;;;;;;;5053878;28;20028;-80
2021/12/09 09:14:31;;;;;;;94.00;39.28;;;;;;;;;;5051106;28;20025;-83
2021/12/09 09:16:56;;;;;;;105.75;38.63;;;;;;;;;;5034337;28;20450;-82
2021/12/09 09:19:22;;;;;;;86.88;36.20;;;;;;;;;;5054461;28;20021;-82
2021/12/09 09:21:48;;;;;;;72.53;30.67;;;;;;;;;;5052642;28;20025;-79
2021/12/09 09:24:13;;;;;;;71.82;32.72;;;;;;;;;;5050322;28;20035;-80
2021/12/09 09:26:39;;;;;;;77.40;32.50;;;;;;;;;;5049766;28;20433;-79
2021/12/09 09:29:05;;;;;;;70.55;30.15;;;;;;;;;;5062517;28;20013;-80
2021/12/09 09:31:32;;;;;;;69.88;29.67;;;;;;;;;;5057156;28;20033;-80
2021/12/09 09:34:01;;;;;;;65.65;28.95;;;;;;;;;;5051101;28;20476;-81
2021/12/09 09:36:27;;;;;;;68.72;31.08;;;;;;;;;;5051424;28;20443;-82
2021/12/09 09:38:59;;;;;;;70.47;32.05;;;;;;;;;;5068047;28;20040;-80
2021/12/09 09:41:31;;;;;;;73.10;32.83;;;;;;;;;;5053405;28;20083;-83
2021/12/09 09:43:58;;;;;;;64.13;29.80;;;;;;;;;;5037464;28;20071;-79
2021/12/09 09:46:28;;;;;;;61.20;28.65;;;;;;;;;;5072371;28;20036;-79
2021/12/09 09:48:55;;;;;;;66.72;32.08;;;;;;;;;;5036296;28;20116;-79
2021/12/09 09:51:25;;;;;;;61.28;27.92;;;;;;;;;;5038126;28;20122;-79
2021/12/09 09:53:50;;;;;;;94.38;35.72;;;;;;;;;;5053181;28;20025;-78
2021/12/09 09:56:19;;;;;;;90.68;35.60;;;;;;;;;;5053833;28;20486;-80
2021/12/09 09:58:49;;;;;;;145.82;46.50;;;;;;;;;;5032742;28;20036;-80
2021/12/09 10:01:15;;;;;;;;;;;;;;;;;;5050529;28;20083;-79
2021/12/09 10:03:44;;;;;;;72.78;29.92;;;;;;;;;;5034345;28;19982;-79
2021/12/09 10:06:10;;;;;;;64.73;30.60;;;;;;;;;;5050739;28;20028;-79
2021/12/09 10:08:36;;;;;;;64.57;29.98;;;;;;;;;;5048866;28;20029;-77
2021/12/09 10:11:02;;;;;;;79.55;34.03;;;;;;;;;;5036712;28;20112;-80
2021/12/09 10:13:32;;;;;;;72.72;31.90;;;;;;;;;;5016618;28;20067;-79
2021/12/09 10:15:57;;;;;;;74.57;31.67;;;;;;;;;;5050102;28;20363;-79
2021/12/09 10:18:41;;;;;;;59.83;26.95;;;;;;;;;;5050145;28;20033;-80
2021/12/09 10:21:08;;;;;;;57.38;26.55;;;;;;;;;;5048880;28;20613;-80
2021/12/09 10:23:36;;;;;;;57.38;27.10;;;;;;;;;;5032941;28;20021;-79
2021/12/09 10:26:14;;;;;;;59.53;27.50;;;;;;;;;;5049866;28;20553;-81
2021/12/09 10:28:41;;;;;;;59.03;28.40;;;;;;;;;;5053714;28;20060;-80
2021/12/09 10:31:14;;;;;;;63.28;28.63;;;;;;;;;;5052943;28;20032;-80
2021/12/09 10:34:27;;;;;;;53.88;25.15;;;;;;;;;;5051273;28;20360;-78
2021/12/09 10:36:56;;;;;;;57.47;24.85;;;;;;;;;;5018856;28;20040;-80
2021/12/09 10:39:29;;;;;;;64.80;29.03;;;;;;;;;;5052137;28;20080;-80
2021/12/09 10:41:56;;;;;;;66.05;27.83;;;;;;;;;;5055212;28;20322;-79
2021/12/09 10:44:55;;;;;;;67.63;30.48;;;;;;;;;;5036702;28;20024;-80
2021/12/09 10:53:18;;;;;;;68.45;31.15;;;;;;;;;;5050691;28;20134;-77
2021/12/09 10:55:44;;;;;;;74.97;31.50;;;;;;;;;;5048327;28;20032;-84
2021/12/09 10:58:12;;;;;;;69.30;32.65;;;;;;;;;;5016420;28;20035;-79
2021/12/09 11:00:46;;;;;;;96.28;38.75;;;;;;;;;;5035177;28;20067;-79
2021/12/09 11:03:34;;;;;;;79.35;34.75;;;;;;;;;;5022226;28;20037;-81
2021/12/09 11:06:03;;;;;;;71.40;29.02;;;;;;;;;;5021147;28;20137;-79
2021/12/09 11:08:34;;;;;;;64.80;28.85;;;;;;;;;;5003781;28;20044;-77
2021/12/09 11:11:05;;;;;;;66.93;32.38;;;;;;;;;;5051369;28;20032;-79
2021/12/09 11:13:56;;;;;;;68.63;28.95;;;;;;;;;;5033929;28;20029;-79
2021/12/09 11:16:39;;;;;;;66.68;28.65;;;;;;;;;;5043402;28;20037;-77
2021/12/09 11:19:10;;;;;;;62.47;27.00;;;;;;;;;;5034712;28;20457;-78
2021/12/09 11:21:40;;;;;;;67.15;28.88;;;;;;;;;;5033720;28;20021;-77
2021/12/09 11:24:13;;;;;;;74.20;29.80;;;;;;;;;;5017891;28;20037;-77
2021/12/09 11:29:28;;;;;;;64.70;28.92;;;;;;;;;;5054725;28;20017;-78
2021/12/09 11:32:12;;;;;;;63.03;27.45;;;;;;;;;;5055872;28;20090;-80
2021/12/09 11:39:50;;;;;;;70.10;29.58;;;;;;;;;;5072645;28;20076;-79
2021/12/09 11:42:21;;;;;;;69.75;30.52;;;;;;;;;;5056322;28;20359;-79
2021/12/09 11:44:47;;;;;;;72.68;31.45;;;;;;;;;;5038490;28;20108;-80
2021/12/09 11:47:13;;;;;;;78.40;32.00;;;;;;;;;;5054202;28;20132;-79
2021/12/09 11:49:40;;;;;;;78.15;34.28;;;;;;;;;;5059653;28;20094;-80
2021/12/09 11:52:05;;;;;;;106.78;43.40;;;;;;;;;;5038303;28;20357;-79
2021/12/09 11:54:31;;;;;;;92.78;39.63;;;;;;;;;;5056492;28;20045;-79
2021/12/09 11:57:12;;;;;;;91.47;39.65;;;;;;;;;;5057524;28;20028;-80
2021/12/09 12:06:39;;;;;;;;;;;;;;;;;;5057235;28;20159;-80
2021/12/09 12:11:30;;;;;;;109.43;45.33;;;;;;;;;;5059536;28;20120;-80
2021/12/09 12:14:02;;;;;;;97.10;41.47;;;;;;;;;;5058515;28;20032;-79
2021/12/09 12:17:07;;;;;;;83.45;37.38;;;;;;;;;;5056871;28;20029;-80
2021/12/09 12:19:53;;;;;;;90.72;38.50;;;;;;;;;;5058849;28;20120;-78
2021/12/09 12:22:49;;;;;;;104.20;41.75;;;;;;;;;;5056631;28;20074;-79
2021/12/09 12:35:42;;;;;;;92.97;38.03;;;;;;;;;;4967704;28;20482;-79
2021/12/09 12:40:51;;;;;;;90.88;37.90;;;;;;;;;;5011532;28;20403;-79
2021/12/09 12:43:55;;;;;;;84.80;38.58;;;;;;;;;;4978163;28;20037;-79
2021/12/09 12:46:42;;;;;;;78.07;33.42;;;;;;;;;;4991084;28;20450;-79
2021/12/09 12:51:59;;;;;;;85.55;36.78;;;;;;;;;;4993451;28;20022;-79
2021/12/09 12:56:59;;;;;;;81.03;36.60;;;;;;;;;;5009762;28;20030;-79
2021/12/09 12:59:33;;;;;;;87.82;39.63;;;;;;;;;;5007266;28;20105;-79
2021/12/09 13:02:14;;;;;;;146.15;65.60;;;;;;;;;;4995500;28;20045;-79
2021/12/09 13:07:48;;;;;;;80.93;35.72;;;;;;;;;;5064143;28;20037;-79
2021/12/09 13:10:33;;;;;;;78.72;35.17;;;;;;;;;;5057606;28;20182;-79
2021/12/09 13:13:28;;;;;;;79.80;35.13;;;;;;;;;;5056305;28;20021;-78
2021/12/09 13:16:14;;;;;;;84.35;35.22;;;;;;;;;;5056436;28;20358;-79
2021/12/09 13:19:00;;;;;;;90.28;37.83;;;;;;;;;;5054583;28;20025;-79
2021/12/09 13:21:46;;;;;;;83.82;38.17;;;;;;;;;;5054573;28;20476;-81
2021/12/09 13:27:22;;;;;;;83.55;37.30;;;;;;;;;;5062572;28;20049;-79
2021/12/09 13:39:10;;;;;;;92.57;39.40;;;;;;;;;;5054838;28;20485;-79
2021/12/09 13:47:13;;;;;;;91.18;38.75;;;;;;;;;;5054776;28;20467;-79
2021/12/09 13:49:53;;;;;;;86.18;39.40;;;;;;;;;;5054319;28;20478;-78
2021/12/09 13:55:21;;;;;;;94.38;39.97;;;;;;;;;;5054703;28;20021;-76
2021/12/09 13:57:53;;;;;;;111.15;46.78;;;;;;;;;;5054083;28;20029;-78
2021/12/09 14:00:19;;;;;;;127.88;50.70;;;;;;;;;;5036973;28;20390;-77
2021/12/09 14:02:48;;;;;;;138.93;56.80;;;;;;;;;;5054883;28;20062;-77
2021/12/09 14:05:15;;;;;;;142.95;51.70;;;;;;;;;;5053525;28;20090;-78
2021/12/09 14:07:48;;;;;;;142.73;49.97;;;;;;;;;;5037260;28;20033;-80
2021/12/09 14:10:16;;;;;;;155.32;52.72;;;;;;;;;;5037130;28;20083;-79
2021/12/09 14:12:48;;;;;;;154.82;53.95;;;;;;;;;;5053700;28;20095;-79
2021/12/09 14:15:20;;;;;;;135.85;54.50;;;;;;;;;;5036876;28;20029;-78
2021/12/09 14:18:00;;;;;;;142.55;59.15;;;;;;;;;;5053443;28;20082;-77
2021/12/09 14:20:26;;;;;;;144.97;67.50;;;;;;;;;;5053502;28;20424;-78
2021/12/09 14:22:51;;;;;;;142.70;66.28;;;;;;;;;;5054531;28;20055;-79
2021/12/09 14:25:28;;;;;;;159.57;73.97;;;;;;;;;;5037083;28;20379;-78
2021/12/09 14:27:54;;;;;;;159.05;74.70;;;;;;;;;;5054615;28;20036;-78
2021/12/09 14:30:21;;;;;;;171.30;77.68;;;;;;;;;;5054860;28;20372;-78
2021/12/09 14:32:48;;;;;;;185.90;85.75;;;;;;;;;;5036347;28;20035;-79
2021/12/09 14:35:22;;;;;;;186.75;90.35;;;;;;;;;;5053113;28;20364;-79
2021/12/09 14:37:49;;;;;;;212.15;102.22;;;;;;;;;;5036979;28;20029;-79
2021/12/09 14:40:18;;;;;;;214.25;91.75;;;;;;;;;;5036562;28;20052;-80
2021/12/09 14:42:52;;;;;;;198.35;84.63;;;;;;;;;;5054817;28;20032;-80
2021/12/09 14:45:17;;;;;;;183.90;75.47;;;;;;;;;;5054304;28;20021;-80
2021/12/09 14:48:12;;;;;;;147.63;62.40;;;;;;;;;;5036548;28;20479;-80
2021/12/09 14:50:41;;;;;;;144.48;60.13;;;;;;;;;;5041103;28;20127;-81
2021/12/09 14:53:07;;;;;;;119.20;51.67;;;;;;;;;;5036839;28;20029;-82
2021/12/09 14:55:37;;;;;;;134.15;56.15;;;;;;;;;;5053024;28;20025;-80
2021/12/09 14:58:09;;;;;;;142.07;55.47;;;;;;;;;;5036436;28;20057;-79
2021/12/09 15:00:45;;;;;;;125.45;54.75;;;;;;;;;;5052983;28;20072;-80
2021/12/09 15:03:17;;;;;;;125.00;52.28;;;;;;;;;;5036075;28;20083;-80
2021/12/09 15:05:52;;;;;;;138.50;56.17;;;;;;;;;;5035765;28;20021;-80
2021/12/09 15:08:21;;;;;;;130.82;51.20;;;;;;;;;;5055939;28;20090;-80
2021/12/09 15:10:48;;;;;;;131.82;52.17;;;;;;;;;;5053254;28;20079;-80
2021/12/09 15:13:14;;;;;;;154.68;61.15;;;;;;;;;;5052646;28;20437;-80
2021/12/09 15:15:39;;;;;;;158.52;60.38;;;;;;;;;;5036241;28;20123;-81
2021/12/09 15:18:07;;;;;;;156.20;60.50;;;;;;;;;;5052334;28;20029;-80
2021/12/09 15:20:43;;;;;;;138.43;56.03;;;;;;;;;;5035951;28;20036;-80
2021/12/09 15:23:41;;;;;;;142.73;56.13;;;;;;;;;;5036397;28;20393;-80
2021/12/09 15:26:13;;;;;;;129.35;50.40;;;;;;;;;;5052770;28;20025;-80
2021/12/09 15:28:39;;;;;;;135.68;53.40;;;;;;;;;;5052476;28;20047;-80
2021/12/09 15:31:04;;;;;;;149.02;60.22;;;;;;;;;;5035674;28;20037;-80
2021/12/09 15:33:42;;;;;;;144.73;60.40;;;;;;;;;;5053539;28;20464;-81
2021/12/09 15:36:10;;;;;;;259.10;106.97;;;;;;;;;;5036341;28;20029;-81